createdAt,value
2018-05-29T00:00:39.437Z,57.36
2018-05-29T00:03:06.898Z,57.58
2018-05-29T00:05:34.380Z,57.79
2018-05-29T00:08:01.834Z,57.86
2018-05-29T00:10:29.294Z,57.99
2018-05-29T00:12:56.947Z,58.08
2018-05-29T00:15:24.420Z,58.17
2018-05-29T00:17:51.896Z,58.34
2018-05-29T00:20:19.439Z,58.37
2018-05-29T00:22:47.064Z,58.53
2018-05-29T00:25:14.638Z,58.69
2018-05-29T00:27:42.103Z,58.83
2018-05-29T00:30:09.542Z,58.81
2018-05-29T00:32:37.017Z,58.76
2018-05-29T00:35:04.469Z,58.73
2018-05-29T00:37:31.996Z,58.82
2018-05-29T00:39:59.441Z,58.96
2018-05-29T00:42:26.948Z,58.79
2018-05-29T00:44:54.427Z,58.56
2018-05-29T00:47:21.889Z,58.46
2018-05-29T00:49:49.365Z,58.52
2018-05-29T00:52:16.827Z,58.53
2018-05-29T00:54:44.297Z,58.57
2018-05-29T00:57:11.762Z,58.63
2018-05-29T00:59:39.269Z,58.99
2018-05-29T01:02:06.704Z,59.09
2018-05-29T01:04:34.285Z,59.46
2018-05-29T01:07:01.812Z,59.88
2018-05-29T01:09:29.273Z,59.91
2018-05-29T01:11:56.770Z,60.14
2018-05-29T01:14:24.242Z,60.11
2018-05-29T01:16:51.692Z,60.03
2018-05-29T01:19:19.133Z,60.15
2018-05-29T01:21:46.599Z,60.31
2018-05-29T01:24:14.041Z,60.41
2018-05-29T01:26:41.490Z,60.58
2018-05-29T01:29:09.227Z,60.68
2018-05-29T01:31:36.663Z,60.55
2018-05-29T01:34:04.260Z,60.41
2018-05-29T01:36:31.709Z,60.39
2018-05-29T01:38:59.247Z,60.70
2018-05-29T01:41:26.700Z,60.88
2018-05-29T01:43:54.166Z,60.98
2018-05-29T01:46:21.601Z,61.03
2018-05-29T01:48:49.072Z,60.92
2018-05-29T01:51:16.559Z,60.80
2018-05-29T01:53:44.079Z,60.87
2018-05-29T01:56:11.557Z,60.91
2018-05-29T01:58:38.997Z,60.99
2018-05-29T02:01:06.872Z,61.18
2018-05-29T02:03:34.357Z,61.39
2018-05-29T02:06:01.921Z,61.37
2018-05-29T02:08:29.755Z,61.66
2018-05-29T02:10:57.294Z,61.55
2018-05-29T02:13:24.806Z,61.54
2018-05-29T02:15:52.247Z,61.97
2018-05-29T02:18:19.709Z,62.23
2018-05-29T02:20:47.211Z,62.06
2018-05-29T02:23:14.710Z,61.78
2018-05-29T02:25:42.144Z,61.69
2018-05-29T02:28:09.611Z,61.61
2018-05-29T02:30:37.057Z,61.38
2018-05-29T02:33:04.607Z,61.56
2018-05-29T02:35:32.041Z,61.71
2018-05-29T02:37:59.530Z,61.97
2018-05-29T02:42:53.778Z,62.33
2018-05-29T02:45:21.802Z,62.35
2018-05-29T02:47:49.273Z,62.43
2018-05-29T02:50:16.721Z,62.53
2018-05-29T02:52:44.275Z,62.48
2018-05-29T02:55:11.743Z,62.56
2018-05-29T02:57:39.177Z,62.37
2018-05-29T03:00:06.651Z,62.42
2018-05-29T03:02:34.112Z,62.36
2018-05-29T03:05:01.588Z,62.44
2018-05-29T03:07:29.070Z,62.79
2018-05-29T03:09:56.588Z,62.65
2018-05-29T03:12:24.065Z,62.69
2018-05-29T03:14:51.497Z,62.80
2018-05-29T03:17:18.963Z,62.76
2018-05-29T03:19:46.409Z,62.67
2018-05-29T03:22:13.870Z,62.65
2018-05-29T03:24:41.305Z,62.39
2018-05-29T03:27:08.780Z,62.42
2018-05-29T03:29:36.238Z,62.43
2018-05-29T03:32:04.032Z,62.43
2018-05-29T03:34:31.544Z,62.51
2018-05-29T03:36:59.010Z,62.33
2018-05-29T03:39:26.455Z,62.25
2018-05-29T03:41:53.907Z,62.29
2018-05-29T03:44:22.226Z,62.29
2018-05-29T03:46:49.671Z,62.36
2018-05-29T03:49:17.125Z,62.24
2018-05-29T03:51:44.626Z,62.27
2018-05-29T03:54:12.179Z,62.71
2018-05-29T03:56:39.712Z,63.37
2018-05-29T03:59:07.197Z,64.10
2018-05-29T04:01:34.644Z,64.03
2018-05-29T04:04:02.127Z,64.09
2018-05-29T04:06:29.582Z,64.47
2018-05-29T04:08:57.050Z,64.84
2018-05-29T04:11:24.508Z,65.27
2018-05-29T04:13:51.991Z,65.39
2018-05-29T04:16:19.596Z,65.24
2018-05-29T04:18:47.132Z,65.13
2018-05-29T04:21:14.620Z,64.94
2018-05-29T04:23:42.256Z,64.65
2018-05-29T04:26:09.833Z,64.54
2018-05-29T04:28:37.315Z,64.45
2018-05-29T04:31:04.779Z,64.47
2018-05-29T04:33:32.231Z,64.51
2018-05-29T04:35:59.732Z,64.37
2018-05-29T04:38:27.181Z,64.77
2018-05-29T04:40:54.663Z,65.13
2018-05-29T04:43:22.096Z,64.97
2018-05-29T04:45:49.614Z,64.91
2018-05-29T04:48:17.162Z,64.83
2018-05-29T04:50:44.756Z,64.28
2018-05-29T04:53:13.337Z,64.20
2018-05-29T04:55:40.986Z,64.08
2018-05-29T04:58:08.530Z,64.11
2018-05-29T05:00:35.963Z,63.81
2018-05-29T05:03:03.420Z,63.54
2018-05-29T05:05:30.889Z,63.83
2018-05-29T05:07:58.381Z,63.51
2018-05-29T05:10:25.842Z,63.81
2018-05-29T05:12:53.319Z,63.77
2018-05-29T05:15:20.805Z,64.04
2018-05-29T05:17:48.338Z,64.78
2018-05-29T05:20:15.825Z,65.81
2018-05-29T05:22:43.237Z,66.40
2018-05-29T05:25:10.768Z,66.68
2018-05-29T05:27:38.232Z,66.16
2018-05-29T05:30:05.700Z,65.98
2018-05-29T05:32:33.384Z,65.55
2018-05-29T05:35:00.851Z,64.86
2018-05-29T05:37:28.349Z,64.46
2018-05-29T05:39:55.838Z,65.19
2018-05-29T05:42:23.293Z,65.42
2018-05-29T05:44:50.757Z,65.53
2018-05-29T05:47:18.205Z,65.57
2018-05-29T05:49:45.779Z,64.12
2018-05-29T05:52:13.251Z,64.12
2018-05-29T05:54:40.715Z,64.23
2018-05-29T05:57:08.184Z,64.75
2018-05-29T05:59:35.678Z,64.84
2018-05-29T06:02:03.181Z,64.87
2018-05-29T06:04:30.677Z,64.47
2018-05-29T06:06:58.159Z,64.51
2018-05-29T06:09:25.644Z,64.30
2018-05-29T06:11:53.138Z,63.76
2018-05-29T06:14:21.484Z,63.80
2018-05-29T06:16:48.942Z,63.30
2018-05-29T06:19:16.404Z,63.11
2018-05-29T06:21:43.840Z,62.71
2018-05-29T06:24:11.745Z,62.12
2018-05-29T06:26:39.198Z,61.83
2018-05-29T06:29:06.752Z,61.62
2018-05-29T06:31:34.257Z,61.82
2018-05-29T06:34:01.713Z,61.85
2018-05-29T06:36:29.195Z,61.64
2018-05-29T06:38:56.906Z,60.53
2018-05-29T06:41:24.426Z,60.12
2018-05-29T06:43:51.908Z,60.31
2018-05-29T06:46:19.359Z,60.96
2018-05-29T06:48:46.788Z,61.19
2018-05-29T06:51:14.983Z,60.74
2018-05-29T06:53:42.424Z,60.58
2018-05-29T06:56:10.509Z,60.48
2018-05-29T06:58:38.010Z,60.32
2018-05-29T07:01:05.928Z,60.88
2018-05-29T07:03:33.394Z,60.81
2018-05-29T07:06:00.877Z,60.70
2018-05-29T07:08:28.319Z,60.69
2018-05-29T07:10:55.790Z,60.47
2018-05-29T07:13:23.279Z,61.44
2018-05-29T07:15:50.808Z,60.34
2018-05-29T07:18:18.295Z,60.73
2018-05-29T07:20:45.756Z,61.65
2018-05-29T07:23:13.223Z,62.04
2018-05-29T07:25:41.079Z,61.40
2018-05-29T07:28:08.536Z,61.00
2018-05-29T07:30:35.974Z,61.49
2018-05-29T07:33:03.608Z,60.90
2018-05-29T07:35:31.678Z,61.33
2018-05-29T07:37:59.211Z,61.00
2018-05-29T07:40:26.668Z,61.37
2018-05-29T07:42:54.398Z,60.90
2018-05-29T07:45:22.030Z,60.68
2018-05-29T07:47:49.526Z,60.70
2018-05-29T07:50:17.129Z,60.96
2018-05-29T07:52:44.572Z,61.11
2018-05-29T07:55:12.224Z,61.08
2018-05-29T07:57:39.757Z,61.51
2018-05-29T08:00:07.220Z,62.01
2018-05-29T08:02:34.716Z,61.79
2018-05-29T08:05:02.341Z,62.33
2018-05-29T08:07:29.794Z,62.01
2018-05-29T08:09:57.271Z,61.65
2018-05-29T08:12:24.721Z,61.23
2018-05-29T08:14:52.195Z,60.92
2018-05-29T08:17:19.703Z,60.91
2018-05-29T08:19:47.789Z,61.43
2018-05-29T08:22:15.232Z,61.27
2018-05-29T08:24:43.102Z,60.54
2018-05-29T08:27:11.226Z,60.23
2018-05-29T08:29:38.767Z,60.54
2018-05-29T08:32:06.301Z,60.39
2018-05-29T08:34:33.794Z,60.11
2018-05-29T08:37:01.345Z,59.30
2018-05-29T08:39:28.816Z,58.58
2018-05-29T08:41:56.273Z,58.40
2018-05-29T08:44:23.719Z,58.58
2018-05-29T08:46:51.203Z,58.80
2018-05-29T08:49:18.680Z,58.53
2018-05-29T08:51:46.137Z,58.44
2018-05-29T08:54:13.669Z,58.13
2018-05-29T08:56:41.266Z,58.08
2018-05-29T08:59:08.669Z,58.20
2018-05-29T09:01:36.139Z,57.10
2018-05-29T09:04:03.649Z,57.17
2018-05-29T09:06:31.113Z,57.70
2018-05-29T09:08:59.320Z,56.94
2018-05-29T09:11:26.808Z,57.06
2018-05-29T09:13:54.295Z,57.66
2018-05-29T09:16:21.751Z,56.89
2018-05-29T09:18:49.408Z,57.12
2018-05-29T09:21:17.037Z,56.50
2018-05-29T09:23:44.555Z,56.11
2018-05-29T09:26:12.741Z,56.15
2018-05-29T09:28:40.921Z,55.21
2018-05-29T09:31:08.371Z,54.78
2018-05-29T09:33:36.616Z,54.75
2018-05-29T09:36:04.058Z,54.06
2018-05-29T09:38:32.530Z,53.26
2018-05-29T09:40:59.981Z,53.50
2018-05-29T09:43:27.473Z,53.03
2018-05-29T09:45:55.662Z,52.51
2018-05-29T09:48:23.252Z,54.22
2018-05-29T09:50:51.241Z,53.51
2018-05-29T09:53:18.925Z,52.67
2018-05-29T09:55:46.375Z,52.73
2018-05-29T09:58:14.159Z,53.53
2018-05-29T10:00:41.686Z,52.02
2018-05-29T10:03:09.173Z,51.99
2018-05-29T10:05:36.625Z,52.10
2018-05-29T10:08:04.560Z,49.94
2018-05-29T10:10:32.085Z,50.00
2018-05-29T10:12:59.910Z,50.71
2018-05-29T10:15:27.380Z,50.57
2018-05-29T10:17:54.899Z,50.15
2018-05-29T10:20:22.372Z,50.53
2018-05-29T10:22:50.467Z,50.94
2018-05-29T10:25:18.008Z,49.58
2018-05-29T10:27:45.473Z,48.85
2018-05-29T10:30:12.948Z,49.59
2018-05-29T10:32:40.411Z,49.97
2018-05-29T10:35:07.900Z,49.06
2018-05-29T10:37:36.157Z,47.96
2018-05-29T10:40:03.726Z,47.53
2018-05-29T10:42:31.194Z,46.35
2018-05-29T10:44:58.660Z,46.70
2018-05-29T10:47:26.119Z,47.04
2018-05-29T10:49:54.024Z,47.51
2018-05-29T10:52:21.495Z,46.68
2018-05-29T10:54:49.031Z,47.78
2018-05-29T10:57:16.532Z,48.38
2018-05-29T10:59:44.050Z,47.74
2018-05-29T11:02:11.526Z,48.64
2018-05-29T11:04:38.982Z,48.21
2018-05-29T11:07:06.500Z,48.42
2018-05-29T11:09:34.986Z,48.58
2018-05-29T11:12:04.323Z,47.36
2018-05-29T11:14:31.777Z,48.06
2018-05-29T11:17:00.230Z,47.06
2018-05-29T11:19:27.687Z,48.12
2018-05-29T11:21:55.166Z,47.18
2018-05-29T11:24:22.658Z,45.34
2018-05-29T11:26:50.526Z,45.63
2018-05-29T11:29:18.336Z,45.86
2018-05-29T11:31:45.801Z,44.98
2018-05-29T11:34:13.412Z,44.87
2018-05-29T11:36:40.923Z,45.29
2018-05-29T11:39:08.382Z,45.94
2018-05-29T11:41:35.839Z,46.27
2018-05-29T11:44:03.304Z,46.32
2018-05-29T11:46:30.772Z,46.66
2018-05-29T11:48:58.337Z,46.89
2018-05-29T11:51:25.820Z,47.06
2018-05-29T11:53:53.317Z,47.34
2018-05-29T11:56:20.739Z,47.38
2018-05-29T11:58:52.090Z,46.67
2018-05-29T12:01:20.385Z,46.72
2018-05-29T12:03:47.912Z,46.02
2018-05-29T12:06:19.169Z,46.87
2018-05-29T12:08:47.380Z,47.45
2018-05-29T12:11:15.735Z,47.51
2018-05-29T12:13:43.215Z,47.86
2018-05-29T12:16:10.845Z,47.57
2018-05-29T12:18:38.326Z,46.62
2018-05-29T12:21:05.788Z,46.06
2018-05-29T12:23:33.251Z,46.06
2018-05-29T12:26:00.713Z,45.12
2018-05-29T12:28:28.224Z,45.60
2018-05-29T12:30:55.700Z,45.45
2018-05-29T12:33:23.342Z,45.40
2018-05-29T12:35:51.515Z,45.40
2018-05-29T12:38:19.109Z,45.43
2018-05-29T12:40:46.605Z,45.90
2018-05-29T12:43:14.083Z,45.31
2018-05-29T12:45:41.616Z,45.77
2018-05-29T12:48:09.503Z,44.90
2018-05-29T12:50:36.931Z,42.27
2018-05-29T12:53:04.474Z,41.76
2018-05-29T12:55:31.989Z,39.48
2018-05-29T12:57:59.568Z,38.32
2018-05-29T13:00:27.096Z,36.36
2018-05-29T13:02:54.693Z,37.06
2018-05-29T13:05:22.274Z,38.43
2018-05-29T13:07:49.753Z,40.20
2018-05-29T13:10:17.301Z,41.50
2018-05-29T13:12:45.218Z,43.73
2018-05-29T13:15:12.666Z,45.78
2018-05-29T13:17:40.674Z,46.90
2018-05-29T13:20:08.146Z,47.89
2018-05-29T13:22:36.586Z,48.76
2018-05-29T13:25:04.123Z,49.82
2018-05-29T13:27:31.614Z,49.29
2018-05-29T13:30:00.294Z,49.62
2018-05-29T13:32:27.772Z,50.09
2018-05-29T13:34:55.362Z,50.08
2018-05-29T13:37:22.895Z,50.21
2018-05-29T13:39:50.549Z,50.30
2018-05-29T13:42:17.982Z,50.61
2018-05-29T13:44:45.460Z,51.20
2018-05-29T13:47:13.287Z,51.80
2018-05-29T13:49:40.830Z,52.72
2018-05-29T13:52:08.607Z,53.11
2018-05-29T13:54:36.072Z,53.82
2018-05-29T13:57:05.796Z,53.79
2018-05-29T13:59:34.199Z,54.40
2018-05-29T14:02:02.741Z,54.40
2018-05-29T14:04:30.189Z,54.55
2018-05-29T14:06:57.883Z,55.67
2018-05-29T14:09:25.457Z,55.00
2018-05-29T14:11:52.985Z,54.64
2018-05-29T14:14:20.767Z,53.92
2018-05-29T14:16:48.291Z,54.12
2018-05-29T14:19:16.096Z,53.98
2018-05-29T14:21:43.555Z,53.92
2018-05-29T14:24:11.071Z,54.88
2018-05-29T14:26:38.530Z,54.72
2018-05-29T14:29:05.995Z,56.21
2018-05-29T14:31:33.476Z,56.50
2018-05-29T14:34:00.953Z,57.13
2018-05-29T14:36:28.410Z,58.20
2018-05-29T14:38:56.269Z,58.06
2018-05-29T14:41:23.774Z,58.36
2018-05-29T14:43:51.292Z,58.28
2018-05-29T14:46:18.711Z,58.97
2018-05-29T14:48:46.152Z,58.53
2018-05-29T14:51:15.490Z,58.68
2018-05-29T14:53:43.914Z,58.46
2018-05-29T14:56:11.406Z,58.55
2018-05-29T14:58:38.940Z,59.34
2018-05-29T15:01:06.372Z,59.21
2018-05-29T15:03:34.092Z,58.68
2018-05-29T15:06:01.891Z,58.12
2018-05-29T15:08:29.356Z,57.54
2018-05-29T15:10:56.878Z,58.15
2018-05-29T15:13:24.481Z,57.89
2018-05-29T15:15:51.962Z,57.07
2018-05-29T15:18:19.415Z,56.38
2018-05-29T15:20:46.940Z,56.37
2018-05-29T15:23:14.392Z,56.57
2018-05-29T15:25:41.875Z,56.76
2018-05-29T15:28:09.345Z,56.70
2018-05-29T15:30:37.678Z,56.43
2018-05-29T15:33:05.135Z,56.56
2018-05-29T15:35:32.625Z,56.45
2018-05-29T15:38:00.115Z,56.36
2018-05-29T15:40:27.567Z,56.36
2018-05-29T15:42:55.105Z,56.34
2018-05-29T15:45:22.557Z,56.32
2018-05-29T15:47:50.056Z,56.53
2018-05-29T15:50:17.645Z,57.28
2018-05-29T15:52:45.146Z,57.22
2018-05-29T15:55:12.583Z,57.37
2018-05-29T15:57:40.941Z,57.68
2018-05-29T16:00:08.459Z,57.10
2018-05-29T16:02:36.134Z,57.24
2018-05-29T16:05:03.620Z,56.70
2018-05-29T16:07:31.083Z,56.99
2018-05-29T16:09:58.943Z,57.04
2018-05-29T16:12:26.436Z,57.89
2018-05-29T16:14:53.914Z,57.75
2018-05-29T16:17:21.372Z,57.77
2018-05-29T16:19:48.944Z,57.18
2018-05-29T16:22:16.441Z,56.66
2018-05-29T16:24:44.055Z,57.04
2018-05-29T16:27:11.584Z,57.23
2018-05-29T16:29:39.210Z,57.23
2018-05-29T16:32:06.653Z,58.01
2018-05-29T16:34:34.483Z,57.83
2018-05-29T16:37:01.917Z,57.10
2018-05-29T16:39:29.746Z,56.48
2018-05-29T16:41:57.337Z,56.07
2018-05-29T16:44:24.841Z,55.57
2018-05-29T16:46:52.320Z,55.91
2018-05-29T16:49:19.827Z,55.61
2018-05-29T16:51:47.580Z,55.90
2018-05-29T16:54:15.158Z,55.18
2018-05-29T16:56:42.672Z,55.59
2018-05-29T16:59:10.292Z,56.23
2018-05-29T17:01:37.794Z,55.71
2018-05-29T17:04:05.458Z,55.55
2018-05-29T17:06:32.993Z,55.12
2018-05-29T17:09:00.694Z,55.66
2018-05-29T17:11:28.237Z,55.10
2018-05-29T17:13:55.740Z,55.68
2018-05-29T17:16:23.220Z,55.71
2018-05-29T17:18:50.838Z,56.46
2018-05-29T17:21:18.305Z,56.32
2018-05-29T17:23:45.829Z,56.20
2018-05-29T17:26:13.795Z,57.43
2018-05-29T17:28:41.270Z,59.02
2018-05-29T17:31:08.930Z,58.48
2018-05-29T17:33:36.433Z,60.19
2018-05-29T17:36:05.945Z,59.63
2018-05-29T17:38:35.418Z,59.78
2018-05-29T17:41:07.602Z,58.14
2018-05-29T17:43:37.503Z,58.98
2018-05-29T17:46:05.306Z,60.65
2018-05-29T17:48:32.818Z,60.27
2018-05-29T17:51:00.478Z,58.91
2018-05-29T17:53:30.620Z,58.31
2018-05-29T17:56:00.074Z,58.77
2018-05-29T17:58:29.515Z,59.87
2018-05-29T18:00:58.833Z,57.76
2018-05-29T18:03:26.712Z,57.76
2018-05-29T18:06:01.556Z,58.09
2018-05-29T18:08:31.690Z,57.88
2018-05-29T18:11:00.776Z,56.96
2018-05-29T18:13:28.518Z,57.62
2018-05-29T18:15:57.800Z,57.48
2018-05-29T18:18:26.454Z,58.83
2018-05-29T18:20:54.180Z,58.39
2018-05-29T18:23:21.900Z,57.46
2018-05-29T18:25:49.602Z,58.58
2018-05-29T18:28:17.251Z,58.27
2018-05-29T18:30:44.800Z,58.73
2018-05-29T18:33:12.333Z,59.04
2018-05-29T18:35:39.903Z,59.43
2018-05-29T18:38:10.916Z,59.11
2018-05-29T18:40:41.027Z,59.37
2018-05-29T18:43:08.535Z,59.68
2018-05-29T18:45:36.050Z,59.17
2018-05-29T18:48:03.500Z,59.89
2018-05-29T18:50:31.022Z,60.64
2018-05-29T18:52:58.487Z,60.69
2018-05-29T18:55:27.683Z,59.82
2018-05-29T18:57:55.184Z,60.10
2018-05-29T19:00:22.830Z,60.24
2018-05-29T19:02:50.506Z,59.56
2018-05-29T19:05:19.585Z,61.47
2018-05-29T19:07:47.043Z,60.16
2018-05-29T19:10:14.529Z,60.91
2018-05-29T19:12:42.009Z,61.47
2018-05-29T19:15:09.445Z,61.34
2018-05-29T19:17:36.971Z,61.23
2018-05-29T19:20:04.422Z,61.12
2018-05-29T19:22:31.908Z,61.33
2018-05-29T19:24:59.436Z,61.16
2018-05-29T19:27:26.968Z,61.29
2018-05-29T19:29:54.435Z,61.23
2018-05-29T19:32:21.947Z,61.45
2018-05-29T19:34:50.020Z,61.72
2018-05-29T19:37:17.494Z,60.88
2018-05-29T19:39:45.045Z,60.83
2018-05-29T19:42:12.549Z,61.39
2018-05-29T19:44:40.400Z,61.46
2018-05-29T19:47:07.968Z,61.80
2018-05-29T19:49:36.278Z,62.09
2018-05-29T19:52:04.682Z,62.18
2018-05-29T19:54:32.173Z,62.38
2018-05-29T19:56:59.666Z,62.19
2018-05-29T19:59:29.344Z,62.55
2018-05-29T20:01:58.893Z,62.53
2018-05-29T20:04:26.392Z,62.38
2018-05-29T20:06:56.808Z,62.63
2018-05-29T20:09:27.522Z,62.69
2018-05-29T20:11:59.545Z,62.79
2018-05-29T20:14:28.626Z,62.23
2018-05-29T20:16:58.428Z,62.08
2018-05-29T20:19:27.509Z,62.57
2018-05-29T20:21:56.135Z,62.77
2018-05-29T20:24:25.157Z,63.05
2018-05-29T20:26:57.997Z,62.99
2018-05-29T20:29:28.294Z,63.11
2018-05-29T20:32:00.066Z,63.48
2018-05-29T20:34:29.680Z,63.74
2018-05-29T20:36:58.262Z,63.97
2018-05-29T20:39:25.950Z,64.22
2018-05-29T20:41:54.184Z,63.79
2018-05-29T20:44:21.681Z,63.52
2018-05-29T20:46:49.268Z,63.69
2018-05-29T20:49:16.916Z,63.99
2018-05-29T20:51:44.386Z,64.18
2018-05-29T20:54:11.866Z,64.49
2018-05-29T20:56:39.428Z,64.71
2018-05-29T20:59:07.493Z,64.84
2018-05-29T21:01:35.045Z,65.03
2018-05-29T21:04:02.508Z,65.13
2018-05-29T21:06:29.980Z,65.38
2018-05-29T21:08:58.854Z,65.61
2018-05-29T21:11:26.361Z,65.75
2018-05-29T21:13:53.829Z,65.71
2018-05-29T21:16:21.365Z,65.90
2018-05-29T21:18:48.856Z,66.15
2018-05-29T21:21:16.389Z,66.08
2018-05-29T21:23:43.842Z,66.04
2018-05-29T21:26:11.359Z,66.05
2018-05-29T21:28:38.853Z,66.05
2018-05-29T21:31:06.583Z,66.47
2018-05-29T21:33:34.108Z,66.65
2018-05-29T21:36:01.564Z,66.87
2018-05-29T21:38:29.072Z,66.84
2018-05-29T21:40:56.524Z,66.98
2018-05-29T21:43:24.034Z,66.86
2018-05-29T21:45:51.494Z,66.95
2018-05-29T21:48:18.979Z,66.96
2018-05-29T21:50:46.444Z,67.32
2018-05-29T21:53:13.935Z,67.65
2018-05-29T21:55:41.420Z,67.74
2018-05-29T21:58:08.934Z,67.96
2018-05-29T22:00:36.391Z,67.72
2018-05-29T22:03:03.874Z,67.67
2018-05-29T22:05:31.378Z,67.83
2018-05-29T22:07:58.840Z,67.77
2018-05-29T22:10:26.402Z,67.98
2018-05-29T22:12:53.840Z,68.25
2018-05-29T22:15:21.298Z,68.39
2018-05-29T22:17:48.794Z,68.57
2018-05-29T22:20:16.278Z,68.61
2018-05-29T22:22:43.741Z,68.57
2018-05-29T22:25:11.972Z,68.58
2018-05-29T22:27:39.597Z,68.88
2018-05-29T22:30:07.091Z,68.73
2018-05-29T22:32:34.785Z,68.47
2018-05-29T22:35:03.047Z,68.38
2018-05-29T22:37:31.414Z,68.47
2018-05-29T22:39:58.910Z,68.58
2018-05-29T22:42:26.409Z,68.51
2018-05-29T22:44:53.873Z,68.57
2018-05-29T22:47:21.354Z,68.59
2018-05-29T22:49:48.820Z,68.69
2018-05-29T22:52:16.309Z,68.86
2018-05-29T22:54:43.766Z,69.03
2018-05-29T22:57:11.321Z,68.82
2018-05-29T22:59:38.818Z,69.03
2018-05-29T23:02:07.083Z,68.95
2018-05-29T23:04:34.533Z,69.19
2018-05-29T23:07:01.994Z,69.41
2018-05-29T23:09:29.524Z,69.16
2018-05-29T23:11:57.659Z,68.95
2018-05-29T23:14:25.164Z,69.41
2018-05-29T23:16:52.615Z,69.53
2018-05-29T23:19:20.066Z,69.72
2018-05-29T23:21:47.512Z,69.76
2018-05-29T23:24:15.089Z,69.75
2018-05-29T23:26:42.647Z,69.95
2018-05-29T23:29:10.223Z,69.92
2018-05-29T23:31:37.750Z,69.85
2018-05-29T23:34:05.398Z,69.62
2018-05-29T23:36:32.887Z,70.10
2018-05-29T23:39:01.016Z,70.10
2018-05-29T23:41:28.497Z,70.21
2018-05-29T23:43:56.118Z,69.96
2018-05-29T23:46:23.601Z,70.86
2018-05-29T23:48:51.045Z,71.26
2018-05-29T23:51:18.531Z,71.12
2018-05-29T23:53:45.984Z,70.96
2018-05-29T23:56:13.470Z,70.89
2018-05-29T23:58:40.990Z,70.98
